Time;durP1;ratioP1;P1;durP2;ratioP2;P2;SDS_P1;SDS_P2;PMS_P1;PMS_P2;Temp;Humidity;BMP_temperature;BMP_pressure;BME280_temperature;BME280_humidity;BME280_pressure;Samples;Min_cycle;Max_cycle;Signal;HPM_P1;HPM_P2
2022/01/06 00:00:22;;;;;;;20.53;18.50;;;;;;;5.04;75.12;91981.47;5048695;28;20190;-82
2022/01/06 00:02:47;;;;;;;19.37;15.17;;;;;;;5.28;74.37;91994.63;5048737;28;20216;-82
2022/01/06 00:05:13;;;;;;;35.97;25.67;;;;;;;4.99;74.48;91978.88;5047656;28;20198;-81
2022/01/06 00:07:38;;;;;;;30.87;22.07;;;;;;;5.10;74.40;91984.81;5050064;28;20197;-80
2022/01/06 00:10:07;;;;;;;20.17;18.13;;;;;;;5.17;74.64;91980.91;5031978;28;20196;-83
2022/01/06 00:12:36;;;;;;;18.30;14.47;;;;;;;5.04;75.17;92006.56;5046162;28;20218;-77
2022/01/06 00:18:10;;;;;;;23.47;20.20;;;;;;;5.03;75.36;91981.72;5047059;28;20229;-82
2022/01/06 00:23:35;;;;;;;20.27;18.23;;;;;;;4.99;76.20;91984.06;5049047;28;20260;-84
2022/01/06 00:26:02;;;;;;;37.37;27.50;;;;;;;5.02;76.14;91987.91;5048222;28;20225;-83
2022/01/06 00:28:28;;;;;;;22.73;20.13;;;;;;;5.29;75.24;91993.59;5047467;28;20194;-81
2022/01/06 00:30:54;;;;;;;18.47;16.50;;;;;;;5.24;75.21;91993.59;5048005;28;20302;-81
2022/01/06 00:33:20;;;;;;;17.17;15.67;;;;;;;5.07;75.63;91985.34;5029773;28;20198;-82
2022/01/06 00:35:46;;;;;;;17.00;15.43;;;;;;;5.32;74.83;92006.00;5046069;28;20225;-82
2022/01/06 00:38:12;;;;;;;18.53;16.87;;;;;;;5.19;75.04;91993.59;5048215;28;20186;-83
2022/01/06 00:40:37;;;;;;;23.10;18.53;;;;;;;5.24;75.24;92001.34;5029192;28;20317;-82
2022/01/06 00:43:05;;;;;;;15.80;14.33;;;;;;;5.21;74.84;91984.56;5048689;28;20179;-82
2022/01/06 00:45:32;;;;;;;15.97;14.57;;;;;;;5.21;75.62;91992.31;5047882;28;20233;-81
2022/01/06 00:47:58;;;;;;;16.00;14.50;;;;;;;5.40;74.61;92002.91;5046966;28;20175;-83
2022/01/06 00:50:24;;;;;;;16.10;14.57;;;;;;;5.33;74.89;91994.63;5031923;28;20182;-82
2022/01/06 00:52:49;;;;;;;19.93;17.80;;;;;;;5.07;75.91;91982.75;5047784;28;20224;-83
2022/01/06 00:55:15;;;;;;;18.80;16.83;;;;;;;5.37;75.11;92003.41;5046929;28;20178;-82
2022/01/06 00:57:41;;;;;;;17.17;15.43;;;;;;;5.31;75.92;91999.28;5047911;28;20202;-82
2022/01/06 01:00:08;;;;;;;16.17;14.67;;;;;;;5.18;75.65;92003.19;5043010;28;21827;-82
2022/01/06 01:02:33;;;;;;;20.93;16.17;;;;;;;5.23;76.59;91997.22;5046800;28;20313;-83
2022/01/06 01:04:59;;;;;;;17.60;15.90;;;;;;;5.33;75.62;91994.63;5045846;28;20194;-83
2022/01/06 01:07:24;;;;;;;18.07;16.27;;;;;;;5.42;75.94;92009.34;5045302;28;20233;-83
2022/01/06 01:09:49;;;;;;;17.90;16.00;;;;;;;5.41;76.36;92007.03;5048683;28;20194;-83
2022/01/06 01:12:15;;;;;;;19.57;15.40;;;;;;;5.24;76.81;91996.19;5045908;28;20233;-83
2022/01/06 01:15:06;;;;;;;16.50;14.23;;;;;;;5.65;76.10;92024.31;5046966;28;20345;-82
2022/01/06 01:17:29;;;;;;;17.20;15.73;;;;;;;5.65;75.57;92028.75;5047496;28;20249;-82
2022/01/06 01:19:54;;;;;;;23.00;20.00;;;;;;;5.20;76.80;91995.16;5046326;28;20198;-82
2022/01/06 01:22:20;;;;;;;18.77;16.57;;;;;;;5.32;76.21;92017.16;5029723;28;20246;-82
2022/01/06 01:24:45;;;;;;;23.87;17.80;;;;;;;5.20;77.84;92015.88;5049177;28;20189;-82
2022/01/06 01:27:11;;;;;;;17.27;15.53;;;;;;;4.93;77.30;91979.94;5044299;28;20234;-82
2022/01/06 01:29:51;;;;;;;19.30;14.17;;;;;;;5.17;77.00;92016.38;5030424;28;20193;-82
2022/01/06 01:32:16;;;;;;;15.67;14.17;;;;;;;5.18;77.44;92012.75;5029207;28;20225;-81
2022/01/06 01:34:45;;;;;;;16.73;15.23;;;;;;;4.76;79.02;91985.34;5046991;28;20209;-81
2022/01/06 01:37:10;;;;;;;17.57;15.77;;;;;;;5.15;77.59;92008.09;5047445;28;20290;-81
2022/01/06 01:39:36;;;;;;;16.87;15.27;;;;;;;4.95;78.29;92007.06;5047710;28;20198;-82
2022/01/06 01:42:01;;;;;;;16.73;15.23;;;;;;;4.69;78.12;91958.97;5029471;28;20221;-80
2022/01/06 01:44:27;;;;;;;15.57;14.10;;;;;;;4.59;80.05;91982.22;5047622;28;20253;-80
2022/01/06 01:47:00;;;;;;;17.17;15.57;;;;;;;4.54;79.82;91992.59;5046734;28;20229;-81
2022/01/06 01:51:52;;;;;;;18.33;16.50;;;;;;;4.46;80.57;91985.34;5046132;28;20289;-82
2022/01/06 01:54:18;;;;;;;17.13;15.40;;;;;;;4.71;80.28;91977.59;5044812;28;20196;-81
2022/01/06 01:56:44;;;;;;;18.10;16.50;;;;;;;4.66;80.56;91976.81;5047414;28;20230;-81
2022/01/06 01:59:11;;;;;;;16.80;14.93;;;;;;;4.45;81.00;91963.09;5047000;28;20202;-82
2022/01/06 02:01:37;;;;;;;20.70;18.60;;;;;;;4.65;80.09;91976.03;5046731;28;20293;-82
2022/01/06 02:04:02;;;;;;;18.33;16.03;;;;;;;4.68;80.80;91988.47;5046824;28;20198;-81
2022/01/06 02:06:28;;;;;;;19.50;15.47;;;;;;;4.41;80.82;91974.19;5029425;28;20225;-81
2022/01/06 02:08:54;;;;;;;18.37;16.47;;;;;;;4.76;80.36;91994.91;5048408;28;20206;-79
2022/01/06 02:11:20;;;;;;;18.23;16.50;;;;;;;4.63;80.60;91980.69;5047494;28;20241;-81
2022/01/06 02:13:46;;;;;;;16.43;15.03;;;;;;;4.67;80.74;91989.47;5046345;28;20253;-81
2022/01/06 02:16:12;;;;;;;17.63;15.93;;;;;;;4.71;80.98;91975.03;5031205;28;20230;-81
2022/01/06 02:18:37;;;;;;;16.90;15.40;;;;;;;4.63;80.14;91970.34;5047109;28;20194;-82
2022/01/06 02:21:03;;;;;;;18.13;16.33;;;;;;;4.60;80.95;91964.91;5045803;28;20222;-82
2022/01/06 02:23:28;;;;;;;16.73;15.13;;;;;;;4.51;80.81;91972.41;5030925;28;20236;-81
2022/01/06 02:25:54;;;;;;;17.30;15.77;;;;;;;4.53;81.81;91956.63;5049349;28;20240;-82
2022/01/06 02:28:22;;;;;;;16.10;14.60;;;;;;;4.89;79.85;91979.66;5050174;28;20201;-82
2022/01/06 02:30:51;;;;;;;17.00;15.23;;;;;;;5.14;79.56;91980.69;5049542;28;20229;-81
2022/01/06 02:33:18;;;;;;;16.30;14.77;;;;;;;5.12;79.26;91987.94;5050008;28;20191;-82
2022/01/06 02:35:43;;;;;;;17.27;15.47;;;;;;;5.06;79.13;91999.31;5049468;28;20256;-82
2022/01/06 02:38:11;;;;;;;16.10;14.57;;;;;;;5.26;78.20;92000.06;5030119;28;20190;-83
2022/01/06 02:40:36;;;;;;;16.07;14.60;;;;;;;5.20;78.20;92010.69;5049486;28;20233;-81
2022/01/06 02:43:05;;;;;;;16.07;14.57;;;;;;;5.18;78.41;92023.09;5052166;28;20238;-81
2022/01/06 02:45:31;;;;;;;15.20;13.97;;;;;;;5.12;77.82;92013.78;5029758;28;20330;-81
2022/01/06 02:47:57;;;;;;;17.87;16.07;;;;;;;4.98;77.86;92001.38;5051561;28;20170;-81
2022/01/06 02:50:24;;;;;;;16.47;14.97;;;;;;;5.21;77.04;92013.00;5049312;28;20193;-82
2022/01/06 02:52:49;;;;;;;15.63;14.33;;;;;;;5.14;77.48;92022.09;5049760;28;20202;-83
2022/01/06 02:55:15;;;;;;;16.27;14.80;;;;;;;4.97;78.57;92012.75;5048025;28;20196;-79
2022/01/06 02:57:42;;;;;;;16.80;15.20;;;;;;;4.95;77.67;91994.13;5050124;28;20198;-81
2022/01/06 03:00:14;;;;;;;16.13;14.73;;;;;;;4.86;78.16;92011.22;5050821;28;20221;-83
2022/01/06 03:02:42;;;;;;;16.07;14.43;;;;;;;4.81;78.12;91998.28;5051937;28;20210;-82
2022/01/06 03:05:08;;;;;;;15.20;13.90;;;;;;;4.39;80.13;91994.38;5049084;28;20190;-82
2022/01/06 03:07:34;;;;;;;16.47;15.10;;;;;;;4.68;78.65;91993.63;5031366;28;20222;-82
2022/01/06 03:10:02;;;;;;;15.40;14.00;;;;;;;4.64;79.33;92000.31;5051585;28;20267;-82
2022/01/06 03:12:39;;;;;;;14.97;13.63;;;;;;;4.40;79.70;91991.53;5046079;28;20237;-85
2022/01/06 03:15:10;;;;;;;14.20;12.93;;;;;;;4.59;79.02;91996.97;5049991;28;20213;-80
2022/01/06 03:17:38;;;;;;;15.00;13.50;;;;;;;4.67;79.01;92004.97;5049531;28;20218;-81
2022/01/06 03:20:06;;;;;;;16.90;15.50;;;;;;;4.45;79.67;92004.44;5033342;28;20197;-79
2022/01/06 03:22:32;;;;;;;15.63;14.20;;;;;;;4.28;79.66;92003.88;5049352;28;20242;-78
2022/01/06 03:24:58;;;;;;;14.97;13.50;;;;;;;4.51;78.64;92021.50;5049466;28;20182;-79
2022/01/06 03:27:24;;;;;;;17.07;15.57;;;;;;;4.27;79.59;91997.16;5046871;28;20250;-79
2022/01/06 03:29:50;;;;;;;16.33;14.87;;;;;;;4.18;79.46;91987.59;5051218;28;20197;-79
2022/01/06 03:32:19;;;;;;;16.00;14.37;;;;;;;4.36;79.55;92011.13;5047371;28;20272;-79
2022/01/06 03:34:45;;;;;;;15.83;14.50;;;;;;;4.11;80.72;92003.31;5049065;28;20267;-79
2022/01/06 03:37:12;;;;;;;14.90;13.80;;;;;;;4.31;78.91;92000.78;5049663;28;20226;-79
2022/01/06 03:39:38;;;;;;;15.13;13.73;;;;;;;4.32;79.03;92014.50;5048320;28;20201;-79
2022/01/06 03:42:03;;;;;;;16.00;14.40;;;;;;;4.23;79.53;92003.91;5049525;28;20229;-79
2022/01/06 03:44:29;;;;;;;16.30;15.00;;;;;;;4.43;78.77;91997.97;5033090;28;20284;-79
2022/01/06 03:46:55;;;;;;;16.50;14.80;;;;;;;4.39;79.28;92013.22;5031456;28;20249;-79
2022/01/06 03:49:21;;;;;;;17.07;15.50;;;;;;;4.26;79.04;91995.63;5031747;28;20190;-79
2022/01/06 03:51:47;;;;;;;15.67;14.27;;;;;;;4.46;79.48;92011.16;5043585;28;20280;-79
2022/01/06 03:54:12;;;;;;;15.70;14.30;;;;;;;4.46;79.90;92010.38;5050137;28;20186;-79
2022/01/06 03:56:38;;;;;;;16.03;14.63;;;;;;;4.45;79.83;91995.91;5049572;28;20222;-79
2022/01/06 03:59:04;;;;;;;16.17;14.63;;;;;;;4.50;81.05;92021.75;5046517;28;20217;-79
2022/01/06 04:01:30;;;;;;;18.13;16.63;;;;;;;4.63;79.38;92016.88;5031806;28;20245;-79
2022/01/06 04:03:56;;;;;;;15.63;14.33;;;;;;;4.52;79.71;92010.13;5049024;28;20206;-79
2022/01/06 04:06:21;;;;;;;17.87;16.17;;;;;;;4.64;80.16;92020.22;5028673;28;20289;-79
2022/01/06 04:08:47;;;;;;;19.53;17.50;;;;;;;4.85;79.07;91999.31;5033082;28;20286;-78
2022/01/06 04:11:13;;;;;;;18.27;16.57;;;;;;;5.04;78.63;92024.66;5030327;28;20267;-78
2022/01/06 04:13:38;;;;;;;18.77;17.07;;;;;;;5.03;79.47;92029.03;5047592;28;20209;-79
2022/01/06 04:16:08;;;;;;;21.23;19.10;;;;;;;4.93;80.70;92022.06;5048761;28;20256;-79
2022/01/06 04:18:34;;;;;;;19.43;17.50;;;;;;;4.91;79.83;92008.63;5032704;28;20197;-79
2022/01/06 04:20:59;;;;;;;61.00;32.60;;;;;;;5.04;78.63;92024.66;5047230;28;20229;-79
2022/01/06 04:23:24;;;;;;;56.73;28.23;;;;;;;4.51;80.50;91995.66;5049037;28;20229;-79
2022/01/06 04:25:50;;;;;;;44.97;24.77;;;;;;;4.82;81.07;92035.25;5031340;28;20272;-79
2022/01/06 04:28:16;;;;;;;19.00;16.57;;;;;;;5.12;82.75;92037.84;5049013;28;20186;-79
2022/01/06 04:30:41;;;;;;;26.77;22.50;;;;;;;5.10;81.10;92033.97;5046922;28;20335;-79
2022/01/06 04:33:07;;;;;;;31.67;26.53;;;;;;;4.82;80.49;92022.31;5048531;28;20197;-80
2022/01/06 04:35:33;;;;;;;22.80;20.43;;;;;;;5.14;81.75;92028.00;5046687;28;20301;-83
2022/01/06 04:37:58;;;;;;;24.67;20.80;;;;;;;5.02;81.86;92042.22;5048109;28;20197;-86
2022/01/06 04:40:24;;;;;;;42.57;29.90;;;;;;;5.03;82.24;92056.75;5047812;28;20257;-82
2022/01/06 04:42:49;;;;;;;50.43;33.30;;;;;;;4.82;82.12;91984.31;5045746;28;20250;-83
2022/01/06 04:45:15;;;;;;;20.50;18.43;;;;;;;5.06;83.33;92040.69;5049143;28;20701;-81
2022/01/06 04:47:40;;;;;;;45.13;32.23;;;;;;;4.91;82.65;92029.31;5048392;28;20680;-80
2022/01/06 04:50:06;;;;;;;30.80;21.73;;;;;;;5.04;82.29;92053.91;5030617;28;20186;-79
2022/01/06 04:52:32;;;;;;;19.47;15.57;;;;;;;5.01;83.30;92051.03;5048417;28;20248;-77
2022/01/06 04:54:57;;;;;;;20.20;17.73;;;;;;;5.16;82.56;92053.63;5047483;28;20194;-77
2022/01/06 04:57:23;;;;;;;19.03;16.80;;;;;;;5.04;82.96;92042.75;5029200;28;20281;-78
2022/01/06 04:59:48;;;;;;;18.27;16.33;;;;;;;5.25;80.90;92019.22;5030340;28;20197;-80
2022/01/06 05:02:14;;;;;;;34.23;22.77;;;;;;;5.53;79.80;92061.88;5047333;28;20221;-77
2022/01/06 05:04:40;;;;;;;20.70;18.43;;;;;;;5.45;80.49;92059.84;5048363;28;20217;-84
2022/01/06 05:07:06;;;;;;;25.17;22.33;;;;;;;5.16;81.15;92040.69;5028666;28;20226;-83
2022/01/06 05:09:31;;;;;;;26.47;21.57;;;;;;;5.04;81.76;92058.28;5031236;28;20190;-80
2022/01/06 05:11:57;;;;;;;31.90;23.97;;;;;;;5.02;81.86;92045.59;5026212;28;20286;-79
2022/01/06 05:14:22;;;;;;;17.33;15.67;;;;;;;5.23;79.79;92061.91;5031377;28;20194;-77
2022/01/06 05:16:48;;;;;;;21.33;16.57;;;;;;;5.08;80.31;92048.97;5029478;28;20230;-78
2022/01/06 05:19:13;;;;;;;20.53;18.43;;;;;;;4.86;81.87;92044.81;5046381;28;20194;-80
2022/01/06 05:21:39;;;;;;;30.87;22.83;;;;;;;4.42;81.74;92009.34;5046790;28;20238;-85
2022/01/06 05:24:12;;;;;;;23.17;20.57;;;;;;;4.65;82.01;92053.56;5046962;28;20198;-86
2022/01/06 05:26:38;;;;;;;22.50;19.30;;;;;;;4.44;81.96;92031.31;5045838;28;20286;-80
2022/01/06 05:29:06;;;;;;;20.77;18.43;;;;;;;4.73;81.30;92063.41;5046896;28;20216;-80
2022/01/06 05:31:31;;;;;;;23.80;21.27;;;;;;;4.87;82.47;92058.53;5045732;28;20223;-80
2022/01/06 05:33:56;;;;;;;21.40;19.10;;;;;;;4.88;81.31;92066.03;5048115;28;20193;-79
2022/01/06 05:36:22;;;;;;;17.67;15.97;;;;;;;4.62;81.09;92061.06;5044876;28;20249;-78
2022/01/06 05:38:47;;;;;;;18.20;16.30;;;;;;;4.42;81.56;92059.22;5048220;28;20186;-79
2022/01/06 05:41:13;;;;;;;26.23;21.27;;;;;;;4.49;81.36;92061.56;5046794;28;20233;-79
2022/01/06 05:43:38;;;;;;;26.00;19.43;;;;;;;4.38;81.47;92063.34;5047320;28;20185;-79
2022/01/06 05:46:04;;;;;;;24.93;21.47;;;;;;;4.23;82.55;92067.69;5029642;28;20260;-79
2022/01/06 05:48:29;;;;;;;31.00;23.90;;;;;;;4.51;82.14;92064.66;5046826;28;20861;-79
2022/01/06 05:50:54;;;;;;;36.63;24.60;;;;;;;4.43;81.25;92049.66;5045994;28;20214;-79
2022/01/06 05:53:20;;;;;;;34.67;21.90;;;;;;;4.54;81.47;92059.00;5047080;28;20201;-75
2022/01/06 05:55:46;;;;;;;30.20;19.67;;;;;;;4.58;81.21;92055.63;5045303;28;20228;-82
2022/01/06 05:58:11;;;;;;;48.93;28.13;;;;;;;4.45;82.28;92045.78;5047197;28;20178;-84
2022/01/06 06:00:37;;;;;;;26.13;20.83;;;;;;;4.33;82.15;92023.78;5048364;28;20222;-85
2022/01/06 06:03:02;;;;;;;58.00;29.97;;;;;;;4.51;81.41;92031.06;5050842;28;20190;-81
2022/01/06 06:05:28;;;;;;;25.47;18.77;;;;;;;4.96;80.60;92075.09;5049139;28;20196;-83
2022/01/06 06:07:53;;;;;;;22.07;19.70;;;;;;;4.81;81.41;92059.53;5047012;28;20183;-78
2022/01/06 06:10:19;;;;;;;26.57;20.63;;;;;;;4.87;81.38;92067.06;5049164;28;20190;-78
2022/01/06 06:12:44;;;;;;;19.83;17.70;;;;;;;5.07;81.00;92044.84;5046714;28;20754;-76
2022/01/06 06:15:10;;;;;;;19.50;17.50;;;;;;;4.57;81.37;92002.41;5051282;28;20217;-82
2022/01/06 06:17:35;;;;;;;17.90;16.13;;;;;;;5.12;80.89;92065.53;5032810;28;20233;-83
2022/01/06 06:20:01;;;;;;;18.23;16.43;;;;;;;5.32;80.29;92055.97;5029517;28;20190;-80
2022/01/06 06:22:26;;;;;;;19.60;17.77;;;;;;;5.47;79.49;92075.84;5050998;28;20241;-84
2022/01/06 06:24:52;;;;;;;18.27;16.33;;;;;;;5.33;80.08;92064.47;5049844;28;20242;-80
2022/01/06 06:27:18;;;;;;;18.23;15.70;;;;;;;5.42;81.07;92065.50;5050571;28;20232;-84
2022/01/06 06:29:43;;;;;;;24.30;16.70;;;;;;;5.24;81.12;92048.72;5046436;28;20257;-83
2022/01/06 06:32:09;;;;;;;16.60;15.07;;;;;;;4.60;80.59;91931.31;5050200;28;20821;-84
2022/01/06 06:34:34;;;;;;;15.93;14.40;;;;;;;5.37;80.55;92075.88;5031940;28;20177;-83
2022/01/06 06:37:00;;;;;;;18.57;15.97;;;;;;;5.47;79.98;92084.41;5047858;28;20214;-85
2022/01/06 06:39:25;;;;;;;17.33;15.53;;;;;;;5.44;80.31;92072.00;5050560;28;20193;-85
2022/01/06 06:41:51;;;;;;;17.20;15.40;;;;;;;5.25;80.57;92060.59;5048705;28;20230;-83
2022/01/06 06:44:16;;;;;;;16.73;15.13;;;;;;;5.29;79.17;92009.13;5052509;28;20190;-82
2022/01/06 06:46:42;;;;;;;17.93;16.33;;;;;;;5.14;79.73;92001.38;5049963;28;20226;-84
2022/01/06 06:49:07;;;;;;;17.37;15.57;;;;;;;5.60;79.69;92090.88;5050285;28;20192;-81
2022/01/06 06:51:33;;;;;;;17.33;15.53;;;;;;;5.66;79.46;92100.97;5049502;28;20232;-82
2022/01/06 06:53:59;;;;;;;17.23;15.30;;;;;;;5.67;79.00;92060.31;5049697;28;20229;-86
2022/01/06 06:56:24;;;;;;;22.23;18.17;;;;;;;5.50;79.04;92062.41;5050502;28;20237;-86
2022/01/06 06:58:49;;;;;;;20.10;18.00;;;;;;;5.43;79.55;92078.19;5050120;28;20190;-86
2022/01/06 07:01:15;;;;;;;28.17;18.77;;;;;;;5.55;80.16;92091.66;5050374;28;20238;-83
2022/01/06 07:03:40;;;;;;;20.13;18.23;;;;;;;5.47;80.44;92094.75;5050616;28;20200;-84
2022/01/06 07:06:06;;;;;;;19.77;17.70;;;;;;;5.64;79.79;92095.28;5048195;28;20214;-83
2022/01/06 07:08:31;;;;;;;23.20;17.97;;;;;;;5.63;78.42;92080.00;5050339;28;20186;-84
2022/01/06 07:10:57;;;;;;;24.50;20.27;;;;;;;5.51;78.15;92069.16;5046210;28;20230;-84
2022/01/06 07:13:22;;;;;;;25.70;17.83;;;;;;;6.01;77.21;92097.56;5050343;28;20273;-84
2022/01/06 07:15:48;;;;;;;17.70;15.80;;;;;;;6.26;75.67;92093.09;5048624;28;20248;-82
2022/01/06 07:18:13;;;;;;;14.93;13.03;;;;;;;6.75;70.65;92084.56;5051250;28;20293;-80
2022/01/06 07:20:39;;;;;;;18.87;14.63;;;;;;;6.90;71.29;92068.91;5049697;28;20260;-85
2022/01/06 07:23:05;;;;;;;15.97;14.37;;;;;;;7.00;72.24;92068.84;5047696;28;20246;-81
2022/01/06 07:25:31;;;;;;;12.37;11.47;;;;;;;8.35;63.17;92095.50;5049443;28;20234;-73
2022/01/06 07:27:56;;;;;;;14.47;13.03;;;;;;;8.35;63.42;92092.88;5046864;28;20187;-73
2022/01/06 07:30:23;;;;;;;12.57;11.60;;;;;;;8.25;63.16;92109.38;5048455;28;20190;-73
2022/01/06 07:32:50;;;;;;;15.30;14.03;;;;;;;8.18;64.80;92120.09;5048132;28;20293;-81
2022/01/06 07:35:18;;;;;;;14.97;13.60;;;;;;;7.86;67.13;92106.88;5049241;28;20201;-83
2022/01/06 07:37:44;;;;;;;17.33;15.33;;;;;;;7.92;65.49;92095.38;5049317;28;20190;-83
2022/01/06 07:40:10;;;;;;;16.37;14.57;;;;;;;7.84;66.94;92093.38;5048166;28;20208;-83
2022/01/06 07:42:36;;;;;;;17.33;15.47;;;;;;;7.62;68.65;92115.66;5048015;28;20218;-88
2022/01/06 07:45:03;;;;;;;20.77;16.33;;;;;;;7.35;69.89;92116.13;5047371;28;20221;-89
2022/01/06 07:47:31;;;;;;;16.20;14.63;;;;;;;6.96;71.81;92117.91;5047078;28;20250;-85
2022/01/06 07:49:57;;;;;;;16.23;14.90;;;;;;;7.05;71.38;92120.75;5049778;28;20182;-87
2022/01/06 07:52:22;;;;;;;16.07;14.60;;;;;;;7.18;69.11;92113.13;5047138;28;20226;-89
2022/01/06 07:54:48;;;;;;;18.67;16.63;;;;;;;7.38;69.36;92112.19;5051260;28;20204;-87
2022/01/06 07:57:14;;;;;;;25.93;17.33;;;;;;;7.27;70.32;92108.91;5048973;28;20222;-86
2022/01/06 07:59:40;;;;;;;19.97;16.17;;;;;;;7.27;71.08;92121.13;5048450;28;20175;-89
2022/01/06 08:02:07;;;;;;;17.57;15.33;;;;;;;7.07;72.06;92144.56;5049644;28;20242;-88
2022/01/06 08:04:33;;;;;;;19.40;17.10;;;;;;;6.95;72.02;92137.13;5047367;28;20182;-86
2022/01/06 08:06:59;;;;;;;19.00;17.23;;;;;;;6.94;74.31;92116.66;5030589;28;20274;-85
2022/01/06 08:09:24;;;;;;;19.20;17.10;;;;;;;6.80;72.97;92129.44;5047997;28;20253;-88
2022/01/06 08:11:50;;;;;;;19.90;17.97;;;;;;;6.97;72.38;92119.50;5049540;28;20226;-86
2022/01/06 08:14:15;;;;;;;18.20;16.57;;;;;;;7.15;70.85;92116.25;5046276;28;20262;-83
2022/01/06 08:16:41;;;;;;;18.33;16.43;;;;;;;7.10;70.60;92111.09;5049207;28;20276;-88
2022/01/06 08:19:06;;;;;;;15.70;14.47;;;;;;;7.61;66.60;92099.28;5048873;28;20259;-86
2022/01/06 08:21:32;;;;;;;13.10;12.20;;;;;;;8.38;62.76;92132.13;5046828;28;20269;-88
2022/01/06 08:23:57;;;;;;;12.27;11.37;;;;;;;8.88;59.25;92096.94;5049184;28;20233;-86
2022/01/06 08:26:23;;;;;;;15.87;14.57;;;;;;;9.17;61.12;92115.78;5046869;28;20221;-87
2022/01/06 08:28:48;;;;;;;19.37;17.33;;;;;;;8.72;63.78;92127.56;5030448;28;20206;-84
2022/01/06 08:31:16;;;;;;;21.80;18.00;;;;;;;8.46;65.89;92167.16;5048252;28;20229;-86
2022/01/06 08:33:42;;;;;;;19.47;17.50;;;;;;;7.88;68.35;92145.56;5048202;28;20203;-91
2022/01/06 08:36:08;;;;;;;17.37;15.40;;;;;;;7.94;68.24;92160.84;5049159;28;20234;-86
2022/01/06 08:38:33;;;;;;;18.50;16.50;;;;;;;8.01;68.04;92150.94;5046847;28;20194;-90
2022/01/06 08:40:59;;;;;;;17.63;15.87;;;;;;;8.12;67.50;92167.97;5047858;28;20248;-86
2022/01/06 08:43:27;;;;;;;19.10;15.73;;;;;;;8.00;68.77;92145.97;5047616;28;20319;-89
2022/01/06 08:45:57;;;;;;;18.00;16.20;;;;;;;8.29;66.74;92140.81;5045769;28;20222;-89
2022/01/06 08:48:24;;;;;;;12.23;11.33;;;;;;;9.40;58.19;92122.78;5030190;28;20190;-89
2022/01/06 08:50:50;;;;;;;12.23;10.97;;;;;;;9.99;58.11;92159.41;5046230;28;20229;-90
2022/01/06 08:53:16;;;;;;;12.07;11.10;;;;;;;10.28;57.75;92127.91;5047547;28;20204;-83
2022/01/06 08:55:46;;;;;;;15.03;13.80;;;;;;;9.76;58.32;92129.00;5047784;28;20234;-81
2022/01/06 08:58:11;;;;;;;11.70;10.57;;;;;;;10.42;54.32;92131.31;5047086;28;20204;-83
2022/01/06 09:00:39;;;;;;;12.87;11.77;;;;;;;10.41;57.58;92138.34;5048439;28;20237;-85
2022/01/06 09:03:06;;;;;;;11.23;10.43;;;;;;;11.08;53.02;92139.44;5048567;28;20201;-85
2022/01/06 09:05:32;;;;;;;19.63;15.03;;;;;;;10.85;55.42;92151.63;5032528;28;20244;-84
2022/01/06 09:07:57;;;;;;;11.43;10.53;;;;;;;11.60;50.15;92151.09;5027255;28;20194;-86
2022/01/06 09:10:23;;;;;;;11.43;10.50;;;;;;;11.90;48.39;92143.38;5047588;28;20201;-87
2022/01/06 09:12:49;;;;;;;10.90;10.00;;;;;;;11.88;49.17;92132.44;5029198;28;20245;-84
2022/01/06 09:15:14;;;;;;;10.70;10.07;;;;;;;11.92;47.82;92109.84;5046570;28;20259;-86
2022/01/06 09:17:40;;;;;;;11.53;10.67;;;;;;;11.72;48.87;92081.56;5031404;28;20193;-85
2022/01/06 09:20:07;;;;;;;10.30;9.63;;;;;;;11.95;47.76;92100.66;5045365;28;20195;-84
2022/01/06 09:22:32;;;;;;;12.43;11.50;;;;;;;12.16;49.32;92139.09;5043010;28;20258;-84
2022/01/06 09:24:58;;;;;;;11.50;10.70;;;;;;;12.12;49.05;92121.69;5023577;28;20192;-85
2022/01/06 09:27:23;;;;;;;10.87;10.10;;;;;;;12.19;48.54;92133.25;5026227;28;20241;-76
2022/01/06 09:29:52;;;;;;;11.63;10.83;;;;;;;12.25;48.22;92108.50;5028379;28;20200;-76
2022/01/06 09:32:18;;;;;;;12.90;10.90;;;;;;;12.46;48.22;92137.56;5022276;28;20300;-75
2022/01/06 09:34:43;;;;;;;10.90;10.10;;;;;;;12.54;46.62;92127.16;5026024;28;20190;-77
2022/01/06 09:37:09;;;;;;;10.47;9.77;;;;;;;12.53;46.70;92112.50;5024113;28;20245;-76
2022/01/06 09:39:34;;;;;;;10.63;9.93;;;;;;;12.62;46.20;92133.50;5027739;28;20194;-78
2022/01/06 09:42:00;;;;;;;11.97;10.73;;;;;;;12.63;47.75;92106.22;5028046;28;20282;-86
2022/01/06 09:44:26;;;;;;;10.07;9.47;;;;;;;12.50;46.19;92080.91;5026708;28;20218;-86
2022/01/06 09:46:55;;;;;;;10.17;9.43;;;;;;;12.76;45.94;92110.59;5027262;28;20253;-82
2022/01/06 09:49:21;;;;;;;10.57;9.63;;;;;;;12.77;44.95;92110.28;5026413;28;20197;-83
2022/01/06 09:51:46;;;;;;;10.37;9.57;;;;;;;12.42;45.91;92068.56;5023844;28;20219;-86
2022/01/06 09:54:12;;;;;;;11.37;10.53;;;;;;;12.59;45.82;92100.06;5025273;28;20210;-82
2022/01/06 09:56:38;;;;;;;10.20;9.50;;;;;;;12.77;45.32;92114.75;5027307;28;20221;-84
2022/01/06 09:59:03;;;;;;;9.23;8.50;;;;;;;12.85;45.96;92114.00;5022337;28;20206;-81
2022/01/06 10:01:29;;;;;;;10.77;10.13;;;;;;;12.80;46.20;92120.16;5024477;28;20229;-81
2022/01/06 10:03:54;;;;;;;13.00;10.93;;;;;;;12.82;47.21;92130.31;5026366;28;20218;-80
2022/01/06 10:06:26;;;;;;;11.93;10.90;;;;;;;12.77;46.98;92125.22;5023209;28;20227;-80
2022/01/06 10:08:59;;;;;;;13.30;12.10;;;;;;;12.80;45.71;92111.50;5023329;28;20225;-80
2022/01/06 10:11:33;;;;;;;11.07;10.13;;;;;;;12.81;46.21;92134.78;5021630;28;20227;-81
2022/01/06 10:14:07;;;;;;;10.63;9.93;;;;;;;12.84;45.96;92128.19;5032852;28;20192;-80
2022/01/06 10:16:35;;;;;;;11.60;10.83;;;;;;;12.90;47.07;92127.72;5021284;28;20235;-81
2022/01/06 10:19:10;;;;;;;12.23;11.33;;;;;;;13.01;44.94;92133.50;5019329;28;20190;-81
2022/01/06 10:21:43;;;;;;;11.27;10.63;;;;;;;12.98;46.00;92134.06;5020006;28;20284;-83
2022/01/06 10:24:11;;;;;;;11.63;10.83;;;;;;;12.95;45.76;92124.19;5024180;28;20221;-85
2022/01/06 10:26:38;;;;;;;11.67;10.80;;;;;;;12.85;45.69;92109.53;5041513;28;20214;-82
2022/01/06 10:29:08;;;;;;;11.97;11.10;;;;;;;12.87;46.48;92101.38;5024050;28;20190;-81
2022/01/06 10:31:34;;;;;;;12.07;11.00;;;;;;;13.16;47.17;92127.06;5038614;28;20297;-81
2022/01/06 10:34:06;;;;;;;12.23;11.13;;;;;;;13.00;45.30;92108.34;5042010;28;20188;-78
2022/01/06 10:36:32;;;;;;;10.27;9.67;;;;;;;13.09;46.42;92129.34;5039447;28;20293;-79
2022/01/06 10:39:00;;;;;;;11.43;10.53;;;;;;;13.14;45.70;92131.81;5039218;28;20449;-84
2022/01/06 10:41:27;;;;;;;11.20;10.20;;;;;;;13.21;45.59;92117.22;5042256;28;20229;-77
2022/01/06 10:43:57;;;;;;;11.70;10.70;;;;;;;13.16;45.90;92106.88;5040987;28;20285;-76
2022/01/06 10:46:31;;;;;;;12.10;11.00;;;;;;;13.14;45.98;92111.63;5041514;28;20214;-74
2022/01/06 10:49:02;;;;;;;12.10;11.20;;;;;;;13.00;46.25;92090.03;5044455;28;20249;-82
2022/01/06 10:51:49;;;;;;;10.13;9.60;;;;;;;13.05;44.98;92113.47;5043306;28;20246;-79
2022/01/06 10:54:22;;;;;;;10.73;9.77;;;;;;;13.22;44.77;92107.47;5047460;28;20201;-79
2022/01/06 10:56:59;;;;;;;12.60;10.63;;;;;;;13.22;44.91;92082.03;5048254;28;20224;-88
2022/01/06 10:59:35;;;;;;;10.83;9.70;;;;;;;13.30;45.65;92106.72;5046534;28;20257;-82
2022/01/06 11:02:01;;;;;;;12.33;11.20;;;;;;;13.36;45.80;92106.28;5045431;28;20252;-77
2022/01/06 11:04:28;;;;;;;10.33;9.40;;;;;;;13.35;44.93;92096.09;5042202;28;20280;-75
2022/01/06 11:06:54;;;;;;;11.80;10.70;;;;;;;13.42;43.96;92112.91;5038420;28;20233;-73
2022/01/06 11:09:20;;;;;;;12.77;10.47;;;;;;;13.46;43.92;92113.06;5042565;28;20998;-74
2022/01/06 11:14:24;;;;;;;12.03;11.13;;;;;;;13.44;43.93;92074.06;5044729;28;20186;-83
2022/01/06 11:16:49;;;;;;;11.90;11.00;;;;;;;13.21;43.85;92067.41;5045116;28;20229;-79
2022/01/06 11:19:15;;;;;;;13.87;11.03;;;;;;;13.38;44.30;92077.91;5043984;28;20225;-76
2022/01/06 11:21:40;;;;;;;11.80;11.00;;;;;;;13.30;43.58;92089.16;5033795;28;20264;-78
2022/01/06 11:24:22;;;;;;;10.07;9.40;;;;;;;13.36;44.14;92095.00;5044319;28;20939;-75
2022/01/06 11:27:04;;;;;;;11.63;10.53;;;;;;;13.38;44.22;92077.91;5039010;28;20244;-79
2022/01/06 11:29:34;;;;;;;11.23;10.10;;;;;;;13.32;44.63;92076.50;5044478;28;20186;-77
2022/01/06 11:32:02;;;;;;;11.77;9.83;;;;;;;13.57;43.99;92103.81;5040397;28;20222;-76